sensor_id;sensor_type;location;lat;lon;timestamp;temperature;humidity
26408;DHT22;14583;43.604;1.364;2023-07-29T00:00:52;24.30;99.90
26408;DHT22;14583;43.604;1.364;2023-07-29T00:03:18;24.40;99.90
26408;DHT22;14583;43.604;1.364;2023-07-29T00:05:44;24.30;99.90
26408;DHT22;14583;43.604;1.364;2023-07-29T00:08:09;24.30;99.90
26408;DHT22;14583;43.604;1.364;2023-07-29T00:10:38;24.30;99.90
26408;DHT22;14583;43.604;1.364;2023-07-29T00:13:05;24.30;99.90
26408;DHT22;14583;43.604;1.364;2023-07-29T00:15:31;24.20;99.90
26408;DHT22;14583;43.604;1.364;2023-07-29T00:17:57;24.20;99.90
26408;DHT22;14583;43.604;1.364;2023-07-29T00:20:22;24.20;99.90
26408;DHT22;14583;43.604;1.364;2023-07-29T00:22:48;24.20;99.90
26408;DHT22;14583;43.604;1.364;2023-07-29T00:25:16;24.20;99.90
26408;DHT22;14583;43.604;1.364;2023-07-29T00:27:42;24.10;99.90
26408;DHT22;14583;43.604;1.364;2023-07-29T00:30:08;24.10;99.90
26408;DHT22;14583;43.604;1.364;2023-07-29T00:32:35;24.10;99.90
26408;DHT22;14583;43.604;1.364;2023-07-29T00:35:01;24.10;99.90
26408;DHT22;14583;43.604;1.364;2023-07-29T00:37:28;24.10;99.90
26408;DHT22;14583;43.604;1.364;2023-07-29T00:39:54;24.20;99.90
26408;DHT22;14583;43.604;1.364;2023-07-29T00:42:20;24.10;99.90
26408;DHT22;14583;43.604;1.364;2023-07-29T00:44:45;24.00;99.90
26408;DHT22;14583;43.604;1.364;2023-07-29T00:47:11;24.10;99.90
26408;DHT22;14583;43.604;1.364;2023-07-29T00:49:39;24.10;99.90
26408;DHT22;14583;43.604;1.364;2023-07-29T00:52:05;24.10;99.90
26408;DHT22;14583;43.604;1.364;2023-07-29T00:54:31;24.10;99.90
26408;DHT22;14583;43.604;1.364;2023-07-29T00:56:56;24.00;99.90
26408;DHT22;14583;43.604;1.364;2023-07-29T00:59:22;24.00;99.90
26408;DHT22;14583;43.604;1.364;2023-07-29T01:01:48;23.90;99.90
26408;DHT22;14583;43.604;1.364;2023-07-29T01:04:14;24.00;99.90
26408;DHT22;14583;43.604;1.364;2023-07-29T01:12:24;24.00;99.90
26408;DHT22;14583;43.604;1.364;2023-07-29T01:14:58;23.90;99.90
26408;DHT22;14583;43.604;1.364;2023-07-29T01:17:48;23.90;99.90
26408;DHT22;14583;43.604;1.364;2023-07-29T01:20:16;23.90;99.90
26408;DHT22;14583;43.604;1.364;2023-07-29T01:22:42;23.80;99.90
26408;DHT22;14583;43.604;1.364;2023-07-29T01:25:08;23.80;99.90
26408;DHT22;14583;43.604;1.364;2023-07-29T01:27:34;23.80;99.90
26408;DHT22;14583;43.604;1.364;2023-07-29T01:30:01;23.80;99.90
26408;DHT22;14583;43.604;1.364;2023-07-29T01:35:39;23.60;99.90
26408;DHT22;14583;43.604;1.364;2023-07-29T01:38:13;23.60;99.90
26408;DHT22;14583;43.604;1.364;2023-07-29T01:40:40;23.60;99.90
26408;DHT22;14583;43.604;1.364;2023-07-29T01:43:06;23.50;99.90
26408;DHT22;14583;43.604;1.364;2023-07-29T01:45:35;23.40;99.90
26408;DHT22;14583;43.604;1.364;2023-07-29T01:48:07;23.30;99.90
26408;DHT22;14583;43.604;1.364;2023-07-29T01:50:36;23.30;99.90
26408;DHT22;14583;43.604;1.364;2023-07-29T01:53:02;23.30;99.90
26408;DHT22;14583;43.604;1.364;2023-07-29T01:55:28;23.40;99.90
26408;DHT22;14583;43.604;1.364;2023-07-29T01:57:54;23.40;99.90
26408;DHT22;14583;43.604;1.364;2023-07-29T02:00:20;23.30;99.90
26408;DHT22;14583;43.604;1.364;2023-07-29T02:02:46;23.30;99.90
26408;DHT22;14583;43.604;1.364;2023-07-29T02:05:12;23.20;99.90
26408;DHT22;14583;43.604;1.364;2023-07-29T02:07:37;23.20;99.90
26408;DHT22;14583;43.604;1.364;2023-07-29T02:10:03;23.20;99.90
26408;DHT22;14583;43.604;1.364;2023-07-29T02:12:29;23.20;99.90
26408;DHT22;14583;43.604;1.364;2023-07-29T02:14:55;23.20;99.90
26408;DHT22;14583;43.604;1.364;2023-07-29T02:17:20;23.10;99.90
26408;DHT22;14583;43.604;1.364;2023-07-29T02:19:46;23.10;99.90
26408;DHT22;14583;43.604;1.364;2023-07-29T02:22:18;23.00;99.90
26408;DHT22;14583;43.604;1.364;2023-07-29T02:24:44;23.10;99.90
26408;DHT22;14583;43.604;1.364;2023-07-29T02:27:10;23.10;99.90
26408;DHT22;14583;43.604;1.364;2023-07-29T02:29:36;23.10;99.90
26408;DHT22;14583;43.604;1.364;2023-07-29T02:32:02;23.00;99.90
26408;DHT22;14583;43.604;1.364;2023-07-29T02:34:28;23.10;99.90
26408;DHT22;14583;43.604;1.364;2023-07-29T02:36:53;22.90;99.90
26408;DHT22;14583;43.604;1.364;2023-07-29T02:39:19;22.90;99.90
26408;DHT22;14583;43.604;1.364;2023-07-29T02:41:45;22.90;99.90
26408;DHT22;14583;43.604;1.364;2023-07-29T02:44:10;22.80;99.90
26408;DHT22;14583;43.604;1.364;2023-07-29T02:46:36;22.80;99.90
26408;DHT22;14583;43.604;1.364;2023-07-29T02:49:02;22.70;99.90
26408;DHT22;14583;43.604;1.364;2023-07-29T02:51:29;22.80;99.90
26408;DHT22;14583;43.604;1.364;2023-07-29T02:53:55;22.70;99.90
26408;DHT22;14583;43.604;1.364;2023-07-29T02:56:21;22.80;99.90
26408;DHT22;14583;43.604;1.364;2023-07-29T02:58:47;22.80;99.90
26408;DHT22;14583;43.604;1.364;2023-07-29T03:01:12;22.70;99.90
26408;DHT22;14583;43.604;1.364;2023-07-29T03:03:39;22.70;99.90
26408;DHT22;14583;43.604;1.364;2023-07-29T03:06:07;22.60;99.90
26408;DHT22;14583;43.604;1.364;2023-07-29T03:08:33;22.70;99.90
26408;DHT22;14583;43.604;1.364;2023-07-29T03:11:04;22.70;99.90
26408;DHT22;14583;43.604;1.364;2023-07-29T03:13:30;22.70;99.90
26408;DHT22;14583;43.604;1.364;2023-07-29T03:16:07;22.60;99.90
26408;DHT22;14583;43.604;1.364;2023-07-29T03:18:33;22.50;99.90
26408;DHT22;14583;43.604;1.364;2023-07-29T03:20:59;22.50;99.90
26408;DHT22;14583;43.604;1.364;2023-07-29T03:23:25;22.50;99.90
26408;DHT22;14583;43.604;1.364;2023-07-29T03:25:51;22.50;99.90
26408;DHT22;14583;43.604;1.364;2023-07-29T03:28:31;22.50;99.90
26408;DHT22;14583;43.604;1.364;2023-07-29T03:30:57;22.60;99.90
26408;DHT22;14583;43.604;1.364;2023-07-29T03:33:25;22.50;99.90
26408;DHT22;14583;43.604;1.364;2023-07-29T03:35:52;22.60;99.90
26408;DHT22;14583;43.604;1.364;2023-07-29T03:38:17;22.60;99.90
26408;DHT22;14583;43.604;1.364;2023-07-29T03:40:43;22.70;99.90
26408;DHT22;14583;43.604;1.364;2023-07-29T03:43:09;22.60;99.90
26408;DHT22;14583;43.604;1.364;2023-07-29T03:45:35;22.60;99.90
26408;DHT22;14583;43.604;1.364;2023-07-29T03:48:02;22.50;99.90
26408;DHT22;14583;43.604;1.364;2023-07-29T03:50:29;22.50;99.90
26408;DHT22;14583;43.604;1.364;2023-07-29T03:52:55;22.50;99.90
26408;DHT22;14583;43.604;1.364;2023-07-29T03:55:21;22.60;99.90
26408;DHT22;14583;43.604;1.364;2023-07-29T03:57:47;22.60;99.90
26408;DHT22;14583;43.604;1.364;2023-07-29T04:00:13;22.60;99.90
26408;DHT22;14583;43.604;1.364;2023-07-29T04:02:39;22.50;99.90
26408;DHT22;14583;43.604;1.364;2023-07-29T04:05:06;22.50;99.90
26408;DHT22;14583;43.604;1.364;2023-07-29T04:07:34;22.40;99.90
26408;DHT22;14583;43.604;1.364;2023-07-29T04:10:00;22.50;99.90
26408;DHT22;14583;43.604;1.364;2023-07-29T04:12:27;22.40;99.90
26408;DHT22;14583;43.604;1.364;2023-07-29T04:14:53;22.40;99.90
26408;DHT22;14583;43.604;1.364;2023-07-29T04:17:18;22.30;99.90
26408;DHT22;14583;43.604;1.364;2023-07-29T04:19:44;22.30;99.90
26408;DHT22;14583;43.604;1.364;2023-07-29T04:22:10;22.10;99.90
26408;DHT22;14583;43.604;1.364;2023-07-29T04:24:35;22.00;99.90
26408;DHT22;14583;43.604;1.364;2023-07-29T04:27:01;22.20;99.90
26408;DHT22;14583;43.604;1.364;2023-07-29T04:29:27;22.10;99.90
26408;DHT22;14583;43.604;1.364;2023-07-29T04:31:53;22.10;99.90
26408;DHT22;14583;43.604;1.364;2023-07-29T04:34:19;22.10;99.90
26408;DHT22;14583;43.604;1.364;2023-07-29T04:36:45;21.90;99.90
26408;DHT22;14583;43.604;1.364;2023-07-29T04:39:11;22.00;99.90
26408;DHT22;14583;43.604;1.364;2023-07-29T04:41:37;22.10;99.90
26408;DHT22;14583;43.604;1.364;2023-07-29T04:44:03;22.10;99.90
26408;DHT22;14583;43.604;1.364;2023-07-29T04:46:28;22.10;99.90
26408;DHT22;14583;43.604;1.364;2023-07-29T04:48:54;22.10;99.90
26408;DHT22;14583;43.604;1.364;2023-07-29T04:51:20;22.10;99.90
26408;DHT22;14583;43.604;1.364;2023-07-29T04:53:46;22.10;99.90
26408;DHT22;14583;43.604;1.364;2023-07-29T04:56:11;22.10;99.90
26408;DHT22;14583;43.604;1.364;2023-07-29T04:58:37;22.00;99.90
26408;DHT22;14583;43.604;1.364;2023-07-29T05:01:03;22.00;99.90
26408;DHT22;14583;43.604;1.364;2023-07-29T05:03:29;22.00;99.90
26408;DHT22;14583;43.604;1.364;2023-07-29T05:05:55;22.00;99.90
26408;DHT22;14583;43.604;1.364;2023-07-29T05:08:22;22.00;99.90
26408;DHT22;14583;43.604;1.364;2023-07-29T05:10:51;21.90;99.90
26408;DHT22;14583;43.604;1.364;2023-07-29T05:13:18;21.90;99.90
26408;DHT22;14583;43.604;1.364;2023-07-29T05:15:43;21.90;99.90
26408;DHT22;14583;43.604;1.364;2023-07-29T05:18:09;21.90;99.90
26408;DHT22;14583;43.604;1.364;2023-07-29T05:20:35;21.90;99.90
26408;DHT22;14583;43.604;1.364;2023-07-29T05:23:00;21.90;99.90
26408;DHT22;14583;43.604;1.364;2023-07-29T05:25:27;21.90;99.90
26408;DHT22;14583;43.604;1.364;2023-07-29T05:27:53;21.90;99.90
26408;DHT22;14583;43.604;1.364;2023-07-29T05:30:18;21.90;99.90
26408;DHT22;14583;43.604;1.364;2023-07-29T05:32:44;22.00;99.90
26408;DHT22;14583;43.604;1.364;2023-07-29T05:35:10;22.00;99.90
26408;DHT22;14583;43.604;1.364;2023-07-29T05:37:39;22.10;99.90
26408;DHT22;14583;43.604;1.364;2023-07-29T05:40:08;22.10;99.90
26408;DHT22;14583;43.604;1.364;2023-07-29T05:42:34;22.10;99.90
26408;DHT22;14583;43.604;1.364;2023-07-29T05:45:01;22.10;99.90
26408;DHT22;14583;43.604;1.364;2023-07-29T05:47:27;22.00;99.90
26408;DHT22;14583;43.604;1.364;2023-07-29T05:49:52;22.00;99.90
26408;DHT22;14583;43.604;1.364;2023-07-29T05:52:18;22.00;99.90
26408;DHT22;14583;43.604;1.364;2023-07-29T05:54:44;22.10;99.90
26408;DHT22;14583;43.604;1.364;2023-07-29T05:57:11;22.20;99.90
26408;DHT22;14583;43.604;1.364;2023-07-29T05:59:37;22.30;99.90
26408;DHT22;14583;43.604;1.364;2023-07-29T06:02:03;22.30;99.90
26408;DHT22;14583;43.604;1.364;2023-07-29T06:04:28;22.30;99.90
26408;DHT22;14583;43.604;1.364;2023-07-29T06:06:54;22.30;99.90
26408;DHT22;14583;43.604;1.364;2023-07-29T06:09:22;22.30;99.90
26408;DHT22;14583;43.604;1.364;2023-07-29T06:11:47;22.40;99.90
26408;DHT22;14583;43.604;1.364;2023-07-29T06:14:13;22.30;99.90
26408;DHT22;14583;43.604;1.364;2023-07-29T06:16:39;22.40;99.90
26408;DHT22;14583;43.604;1.364;2023-07-29T06:19:05;22.50;99.90
26408;DHT22;14583;43.604;1.364;2023-07-29T06:21:30;22.60;99.90
26408;DHT22;14583;43.604;1.364;2023-07-29T06:23:56;22.60;99.90
26408;DHT22;14583;43.604;1.364;2023-07-29T06:26:22;22.60;99.90
26408;DHT22;14583;43.604;1.364;2023-07-29T06:28:48;22.70;99.90
26408;DHT22;14583;43.604;1.364;2023-07-29T06:31:13;22.70;99.90
26408;DHT22;14583;43.604;1.364;2023-07-29T06:33:40;22.60;99.90
26408;DHT22;14583;43.604;1.364;2023-07-29T06:36:05;22.60;99.90
26408;DHT22;14583;43.604;1.364;2023-07-29T06:38:31;22.70;99.90
26408;DHT22;14583;43.604;1.364;2023-07-29T06:40:57;22.80;99.90
26408;DHT22;14583;43.604;1.364;2023-07-29T06:43:23;22.80;99.90
26408;DHT22;14583;43.604;1.364;2023-07-29T06:45:49;22.80;99.90
26408;DHT22;14583;43.604;1.364;2023-07-29T06:48:14;22.80;99.90
26408;DHT22;14583;43.604;1.364;2023-07-29T06:50:40;22.90;99.90
26408;DHT22;14583;43.604;1.364;2023-07-29T06:53:06;23.00;99.90
26408;DHT22;14583;43.604;1.364;2023-07-29T06:55:32;23.00;99.90
26408;DHT22;14583;43.604;1.364;2023-07-29T06:57:57;23.10;99.90
26408;DHT22;14583;43.604;1.364;2023-07-29T07:00:23;23.10;99.90
26408;DHT22;14583;43.604;1.364;2023-07-29T07:02:49;23.10;99.90
26408;DHT22;14583;43.604;1.364;2023-07-29T07:05:15;23.20;99.90
26408;DHT22;14583;43.604;1.364;2023-07-29T07:07:40;23.30;99.90
26408;DHT22;14583;43.604;1.364;2023-07-29T07:10:06;23.30;99.90
26408;DHT22;14583;43.604;1.364;2023-07-29T07:12:32;23.40;99.90
26408;DHT22;14583;43.604;1.364;2023-07-29T07:14:58;23.50;99.90
26408;DHT22;14583;43.604;1.364;2023-07-29T07:17:23;23.50;99.90
26408;DHT22;14583;43.604;1.364;2023-07-29T07:19:49;23.50;99.90
26408;DHT22;14583;43.604;1.364;2023-07-29T07:22:16;23.70;99.90
26408;DHT22;14583;43.604;1.364;2023-07-29T07:24:42;23.80;99.90
26408;DHT22;14583;43.604;1.364;2023-07-29T07:27:08;23.80;99.90
26408;DHT22;14583;43.604;1.364;2023-07-29T07:29:33;23.90;99.90
26408;DHT22;14583;43.604;1.364;2023-07-29T07:31:59;23.90;99.90
26408;DHT22;14583;43.604;1.364;2023-07-29T07:34:25;24.00;99.90
26408;DHT22;14583;43.604;1.364;2023-07-29T07:36:51;24.00;99.90
26408;DHT22;14583;43.604;1.364;2023-07-29T07:39:16;24.00;99.90
26408;DHT22;14583;43.604;1.364;2023-07-29T07:41:42;24.00;99.90
26408;DHT22;14583;43.604;1.364;2023-07-29T07:44:08;24.10;99.90
26408;DHT22;14583;43.604;1.364;2023-07-29T07:46:34;24.10;99.90
26408;DHT22;14583;43.604;1.364;2023-07-29T07:49:00;24.20;99.90
26408;DHT22;14583;43.604;1.364;2023-07-29T07:51:26;24.30;99.90
26408;DHT22;14583;43.604;1.364;2023-07-29T07:53:51;24.40;99.90
26408;DHT22;14583;43.604;1.364;2023-07-29T07:56:17;24.40;99.90
26408;DHT22;14583;43.604;1.364;2023-07-29T07:58:42;24.60;99.90
26408;DHT22;14583;43.604;1.364;2023-07-29T08:01:09;24.60;99.90
26408;DHT22;14583;43.604;1.364;2023-07-29T08:03:35;24.70;99.90
26408;DHT22;14583;43.604;1.364;2023-07-29T08:06:01;24.70;99.90
26408;DHT22;14583;43.604;1.364;2023-07-29T08:08:27;24.70;99.90
26408;DHT22;14583;43.604;1.364;2023-07-29T08:10:54;24.80;99.90
26408;DHT22;14583;43.604;1.364;2023-07-29T08:13:20;24.80;99.90
26408;DHT22;14583;43.604;1.364;2023-07-29T08:15:50;24.90;99.90
26408;DHT22;14583;43.604;1.364;2023-07-29T08:18:16;24.90;99.90
26408;DHT22;14583;43.604;1.364;2023-07-29T08:20:52;25.00;99.90
26408;DHT22;14583;43.604;1.364;2023-07-29T08:23:18;25.10;99.90
26408;DHT22;14583;43.604;1.364;2023-07-29T08:25:44;25.20;99.90
26408;DHT22;14583;43.604;1.364;2023-07-29T08:28:10;25.20;99.90
26408;DHT22;14583;43.604;1.364;2023-07-29T08:30:36;25.20;99.90
26408;DHT22;14583;43.604;1.364;2023-07-29T08:33:02;25.30;99.90
26408;DHT22;14583;43.604;1.364;2023-07-29T08:35:28;25.30;99.90
26408;DHT22;14583;43.604;1.364;2023-07-29T08:37:54;25.40;99.90
26408;DHT22;14583;43.604;1.364;2023-07-29T08:40:23;25.50;99.90
26408;DHT22;14583;43.604;1.364;2023-07-29T08:42:52;25.50;99.90
26408;DHT22;14583;43.604;1.364;2023-07-29T08:45:19;25.50;99.90
26408;DHT22;14583;43.604;1.364;2023-07-29T08:47:46;25.60;99.90
26408;DHT22;14583;43.604;1.364;2023-07-29T08:50:13;25.60;99.90
26408;DHT22;14583;43.604;1.364;2023-07-29T08:52:41;25.70;99.90
26408;DHT22;14583;43.604;1.364;2023-07-29T08:55:08;25.70;99.90
26408;DHT22;14583;43.604;1.364;2023-07-29T08:57:34;25.70;99.90
26408;DHT22;14583;43.604;1.364;2023-07-29T09:00:01;25.70;99.90
26408;DHT22;14583;43.604;1.364;2023-07-29T09:02:28;25.70;99.90
26408;DHT22;14583;43.604;1.364;2023-07-29T09:04:53;25.80;99.90
26408;DHT22;14583;43.604;1.364;2023-07-29T09:07:19;25.90;99.90
26408;DHT22;14583;43.604;1.364;2023-07-29T09:09:46;26.00;99.90
26408;DHT22;14583;43.604;1.364;2023-07-29T09:12:11;26.10;99.90
26408;DHT22;14583;43.604;1.364;2023-07-29T09:14:37;26.10;99.90
26408;DHT22;14583;43.604;1.364;2023-07-29T09:17:07;26.10;99.90
26408;DHT22;14583;43.604;1.364;2023-07-29T09:19:33;26.10;99.90
26408;DHT22;14583;43.604;1.364;2023-07-29T09:22:00;26.30;99.90
26408;DHT22;14583;43.604;1.364;2023-07-29T09:24:26;26.30;99.90
26408;DHT22;14583;43.604;1.364;2023-07-29T09:26:55;26.40;99.90
26408;DHT22;14583;43.604;1.364;2023-07-29T09:29:28;26.40;99.90
26408;DHT22;14583;43.604;1.364;2023-07-29T09:31:53;26.40;99.90
26408;DHT22;14583;43.604;1.364;2023-07-29T09:34:19;26.50;99.90
26408;DHT22;14583;43.604;1.364;2023-07-29T09:36:50;26.50;99.90
26408;DHT22;14583;43.604;1.364;2023-07-29T09:39:18;26.60;99.90
26408;DHT22;14583;43.604;1.364;2023-07-29T09:41:47;26.60;99.90
26408;DHT22;14583;43.604;1.364;2023-07-29T09:44:14;26.50;99.90
26408;DHT22;14583;43.604;1.364;2023-07-29T09:46:40;26.50;99.90
26408;DHT22;14583;43.604;1.364;2023-07-29T09:49:07;26.50;99.90
26408;DHT22;14583;43.604;1.364;2023-07-29T09:51:40;26.50;99.90
26408;DHT22;14583;43.604;1.364;2023-07-29T09:54:06;26.90;99.90
26408;DHT22;14583;43.604;1.364;2023-07-29T09:56:32;27.10;99.90
26408;DHT22;14583;43.604;1.364;2023-07-29T09:58:58;27.10;99.90
26408;DHT22;14583;43.604;1.364;2023-07-29T10:01:27;27.00;99.90
26408;DHT22;14583;43.604;1.364;2023-07-29T10:03:54;26.90;99.90
26408;DHT22;14583;43.604;1.364;2023-07-29T10:06:22;26.90;99.90
26408;DHT22;14583;43.604;1.364;2023-07-29T10:08:49;26.90;99.90
26408;DHT22;14583;43.604;1.364;2023-07-29T10:11:16;27.00;99.90
26408;DHT22;14583;43.604;1.364;2023-07-29T10:13:41;27.20;99.90
26408;DHT22;14583;43.604;1.364;2023-07-29T10:16:07;27.40;99.90
26408;DHT22;14583;43.604;1.364;2023-07-29T10:18:34;27.40;99.90
26408;DHT22;14583;43.604;1.364;2023-07-29T10:21:01;27.50;99.90
26408;DHT22;14583;43.604;1.364;2023-07-29T10:23:28;27.40;99.90
26408;DHT22;14583;43.604;1.364;2023-07-29T10:26:03;27.90;99.90
26408;DHT22;14583;43.604;1.364;2023-07-29T10:28:32;28.20;99.90
26408;DHT22;14583;43.604;1.364;2023-07-29T10:30:58;28.10;99.90
26408;DHT22;14583;43.604;1.364;2023-07-29T10:33:25;28.00;99.90
26408;DHT22;14583;43.604;1.364;2023-07-29T10:35:53;28.10;99.90
26408;DHT22;14583;43.604;1.364;2023-07-29T10:38:21;28.00;99.90
26408;DHT22;14583;43.604;1.364;2023-07-29T10:40:51;27.90;99.90
26408;DHT22;14583;43.604;1.364;2023-07-29T10:43:34;27.70;99.90
26408;DHT22;14583;43.604;1.364;2023-07-29T10:46:19;27.60;99.90
26408;DHT22;14583;43.604;1.364;2023-07-29T10:48:56;27.60;99.90
26408;DHT22;14583;43.604;1.364;2023-07-29T10:53:55;28.20;99.90
26408;DHT22;14583;43.604;1.364;2023-07-29T10:56:30;28.60;99.90
26408;DHT22;14583;43.604;1.364;2023-07-29T10:58:59;28.50;99.90
26408;DHT22;14583;43.604;1.364;2023-07-29T11:01:31;28.20;99.90
26408;DHT22;14583;43.604;1.364;2023-07-29T11:15:18;28.60;99.90
26408;DHT22;14583;43.604;1.364;2023-07-29T11:17:58;28.60;99.90
26408;DHT22;14583;43.604;1.364;2023-07-29T11:20:33;28.60;99.90
26408;DHT22;14583;43.604;1.364;2023-07-29T11:23:01;28.70;99.90
26408;DHT22;14583;43.604;1.364;2023-07-29T11:25:28;28.70;99.90
26408;DHT22;14583;43.604;1.364;2023-07-29T11:27:57;28.60;99.90
26408;DHT22;14583;43.604;1.364;2023-07-29T11:30:23;28.60;99.90
26408;DHT22;14583;43.604;1.364;2023-07-29T11:32:53;28.80;99.90
26408;DHT22;14583;43.604;1.364;2023-07-29T11:35:19;29.10;99.90
26408;DHT22;14583;43.604;1.364;2023-07-29T11:37:47;29.00;99.90
26408;DHT22;14583;43.604;1.364;2023-07-29T11:40:18;28.80;99.90
26408;DHT22;14583;43.604;1.364;2023-07-29T11:42:48;28.70;99.90
26408;DHT22;14583;43.604;1.364;2023-07-29T11:45:16;28.90;99.90
26408;DHT22;14583;43.604;1.364;2023-07-29T11:47:42;29.00;99.90
26408;DHT22;14583;43.604;1.364;2023-07-29T11:50:10;29.20;99.90
26408;DHT22;14583;43.604;1.364;2023-07-29T11:52:37;29.30;99.90
26408;DHT22;14583;43.604;1.364;2023-07-29T11:55:04;29.30;99.90
26408;DHT22;14583;43.604;1.364;2023-07-29T11:57:30;29.30;99.90
26408;DHT22;14583;43.604;1.364;2023-07-29T11:59:57;29.40;99.90
26408;DHT22;14583;43.604;1.364;2023-07-29T12:02:24;29.50;99.90
26408;DHT22;14583;43.604;1.364;2023-07-29T12:04:51;29.70;99.90
26408;DHT22;14583;43.604;1.364;2023-07-29T12:07:17;29.70;99.90
26408;DHT22;14583;43.604;1.364;2023-07-29T12:09:44;29.60;99.90
26408;DHT22;14583;43.604;1.364;2023-07-29T12:12:11;29.50;99.90
26408;DHT22;14583;43.604;1.364;2023-07-29T12:14:37;29.40;99.90
26408;DHT22;14583;43.604;1.364;2023-07-29T12:17:05;29.40;99.90
26408;DHT22;14583;43.604;1.364;2023-07-29T12:19:38;29.60;99.90
26408;DHT22;14583;43.604;1.364;2023-07-29T12:22:05;29.60;99.90
26408;DHT22;14583;43.604;1.364;2023-07-29T12:24:32;29.90;99.90
26408;DHT22;14583;43.604;1.364;2023-07-29T12:26:58;30.30;99.90
26408;DHT22;14583;43.604;1.364;2023-07-29T12:29:25;30.10;99.90
26408;DHT22;14583;43.604;1.364;2023-07-29T12:32:02;30.00;99.90
26408;DHT22;14583;43.604;1.364;2023-07-29T12:34:29;30.10;99.90
26408;DHT22;14583;43.604;1.364;2023-07-29T12:36:57;29.70;99.90
26408;DHT22;14583;43.604;1.364;2023-07-29T12:39:28;29.60;99.90
26408;DHT22;14583;43.604;1.364;2023-07-29T12:41:55;29.60;99.90
26408;DHT22;14583;43.604;1.364;2023-07-29T12:44:23;29.70;99.90
26408;DHT22;14583;43.604;1.364;2023-07-29T12:46:49;29.80;99.90
26408;DHT22;14583;43.604;1.364;2023-07-29T12:49:15;29.70;99.90
26408;DHT22;14583;43.604;1.364;2023-07-29T12:51:41;29.80;99.90
26408;DHT22;14583;43.604;1.364;2023-07-29T12:54:07;29.80;99.90
26408;DHT22;14583;43.604;1.364;2023-07-29T12:56:36;30.00;99.90
26408;DHT22;14583;43.604;1.364;2023-07-29T12:59:02;30.10;99.20
26408;DHT22;14583;43.604;1.364;2023-07-29T13:01:28;30.40;98.50
26408;DHT22;14583;43.604;1.364;2023-07-29T13:03:54;30.40;98.50
26408;DHT22;14583;43.604;1.364;2023-07-29T13:06:22;30.20;98.50
26408;DHT22;14583;43.604;1.364;2023-07-29T13:08:48;30.20;98.70
26408;DHT22;14583;43.604;1.364;2023-07-29T13:11:14;30.20;98.80
26408;DHT22;14583;43.604;1.364;2023-07-29T13:13:40;30.10;99.20
26408;DHT22;14583;43.604;1.364;2023-07-29T13:16:06;30.00;99.40
26408;DHT22;14583;43.604;1.364;2023-07-29T13:18:32;30.00;99.30
26408;DHT22;14583;43.604;1.364;2023-07-29T13:20:58;30.30;99.70
26408;DHT22;14583;43.604;1.364;2023-07-29T13:23:26;30.30;98.80
26408;DHT22;14583;43.604;1.364;2023-07-29T13:25:52;30.10;98.70
26408;DHT22;14583;43.604;1.364;2023-07-29T13:28:18;30.20;99.00
26408;DHT22;14583;43.604;1.364;2023-07-29T13:30:44;30.50;98.50
26408;DHT22;14583;43.604;1.364;2023-07-29T13:33:10;30.70;97.30
26408;DHT22;14583;43.604;1.364;2023-07-29T13:35:36;31.20;97.00
26408;DHT22;14583;43.604;1.364;2023-07-29T13:38:01;31.20;96.80
26408;DHT22;14583;43.604;1.364;2023-07-29T13:40:27;31.30;96.80
26408;DHT22;14583;43.604;1.364;2023-07-29T13:42:54;31.80;96.30
26408;DHT22;14583;43.604;1.364;2023-07-29T13:45:20;31.50;95.60
26408;DHT22;14583;43.604;1.364;2023-07-29T13:47:46;31.70;95.30
26408;DHT22;14583;43.604;1.364;2023-07-29T13:50:12;31.70;95.10
26408;DHT22;14583;43.604;1.364;2023-07-29T13:52:38;31.90;95.20
26408;DHT22;14583;43.604;1.364;2023-07-29T13:55:05;32.40;94.70
26408;DHT22;14583;43.604;1.364;2023-07-29T13:57:31;32.40;95.10
26408;DHT22;14583;43.604;1.364;2023-07-29T13:59:57;32.30;95.00
26408;DHT22;14583;43.604;1.364;2023-07-29T14:02:23;32.30;95.20
26408;DHT22;14583;43.604;1.364;2023-07-29T14:04:49;32.40;94.10
26408;DHT22;14583;43.604;1.364;2023-07-29T14:07:14;32.40;94.40
26408;DHT22;14583;43.604;1.364;2023-07-29T14:09:40;31.90;94.80
26408;DHT22;14583;43.604;1.364;2023-07-29T14:12:08;31.90;95.00
26408;DHT22;14583;43.604;1.364;2023-07-29T14:14:39;31.90;94.80
26408;DHT22;14583;43.604;1.364;2023-07-29T14:17:05;31.70;95.20
26408;DHT22;14583;43.604;1.364;2023-07-29T14:19:34;31.50;94.60
26408;DHT22;14583;43.604;1.364;2023-07-29T14:22:00;31.60;94.60
26408;DHT22;14583;43.604;1.364;2023-07-29T14:24:27;31.50;95.10
26408;DHT22;14583;43.604;1.364;2023-07-29T14:26:53;31.50;95.50
26408;DHT22;14583;43.604;1.364;2023-07-29T14:29:18;31.80;95.30
26408;DHT22;14583;43.604;1.364;2023-07-29T14:31:44;31.70;95.00
26408;DHT22;14583;43.604;1.364;2023-07-29T14:34:10;31.80;95.80
26408;DHT22;14583;43.604;1.364;2023-07-29T14:36:36;31.90;95.30
26408;DHT22;14583;43.604;1.364;2023-07-29T14:39:02;31.90;95.00
26408;DHT22;14583;43.604;1.364;2023-07-29T14:41:28;32.20;94.80
26408;DHT22;14583;43.604;1.364;2023-07-29T14:43:53;32.30;95.10
26408;DHT22;14583;43.604;1.364;2023-07-29T14:46:19;31.90;95.20
26408;DHT22;14583;43.604;1.364;2023-07-29T14:48:45;31.80;95.30
26408;DHT22;14583;43.604;1.364;2023-07-29T14:51:12;31.70;95.70
26408;DHT22;14583;43.604;1.364;2023-07-29T14:53:38;31.60;95.50
26408;DHT22;14583;43.604;1.364;2023-07-29T14:56:04;31.60;95.70
26408;DHT22;14583;43.604;1.364;2023-07-29T14:58:30;31.80;95.90
26408;DHT22;14583;43.604;1.364;2023-07-29T15:00:56;31.80;95.40
26408;DHT22;14583;43.604;1.364;2023-07-29T15:03:21;32.00;95.70
26408;DHT22;14583;43.604;1.364;2023-07-29T15:05:47;31.70;95.40
26408;DHT22;14583;43.604;1.364;2023-07-29T15:08:13;31.50;95.30
26408;DHT22;14583;43.604;1.364;2023-07-29T15:10:39;31.40;95.90
26408;DHT22;14583;43.604;1.364;2023-07-29T15:13:04;31.20;95.60
26408;DHT22;14583;43.604;1.364;2023-07-29T15:15:30;31.10;95.80
26408;DHT22;14583;43.604;1.364;2023-07-29T15:17:55;31.10;96.10
26408;DHT22;14583;43.604;1.364;2023-07-29T15:20:24;31.10;95.90
26408;DHT22;14583;43.604;1.364;2023-07-29T15:22:50;31.10;96.20
26408;DHT22;14583;43.604;1.364;2023-07-29T15:25:15;31.00;96.10
26408;DHT22;14583;43.604;1.364;2023-07-29T15:27:41;31.00;96.30
26408;DHT22;14583;43.604;1.364;2023-07-29T15:30:07;31.10;96.20
26408;DHT22;14583;43.604;1.364;2023-07-29T15:32:33;31.00;96.40
26408;DHT22;14583;43.604;1.364;2023-07-29T15:34:59;31.00;96.60
26408;DHT22;14583;43.604;1.364;2023-07-29T15:37:25;30.80;96.80
26408;DHT22;14583;43.604;1.364;2023-07-29T15:39:51;30.80;97.10
26408;DHT22;14583;43.604;1.364;2023-07-29T15:42:17;30.60;96.70
26408;DHT22;14583;43.604;1.364;2023-07-29T15:44:43;30.50;96.90
26408;DHT22;14583;43.604;1.364;2023-07-29T15:47:09;30.40;96.70
26408;DHT22;14583;43.604;1.364;2023-07-29T15:49:34;30.20;97.10